createdAt,value
2019-01-10T00:02:04.445Z,101832.00
2019-01-10T00:04:35.315Z,101828.54
2019-01-10T00:07:05.737Z,101826.33
2019-01-10T00:09:36.002Z,101825.55
2019-01-10T00:12:06.283Z,101830.05
2019-01-10T00:14:36.607Z,101836.77
2019-01-10T00:17:07.288Z,101837.61
2019-01-10T00:19:38.023Z,101838.50
2019-01-10T00:22:09.407Z,101842.52
2019-01-10T00:24:39.708Z,101852.38
2019-01-10T00:27:10.590Z,101851.13
2019-01-10T00:29:41.461Z,101861.78
2019-01-10T00:32:11.741Z,101863.20
2019-01-10T00:34:42.146Z,101863.99
2019-01-10T00:37:13.025Z,101863.25
2019-01-10T00:39:44.760Z,101864.84
2019-01-10T00:42:15.207Z,101857.05
2019-01-10T00:44:46.053Z,101856.95
2019-01-10T00:47:16.809Z,101861.50
2019-01-10T00:49:47.209Z,101869.69
2019-01-10T00:52:17.489Z,101869.42
2019-01-10T00:54:47.929Z,101866.27
2019-01-10T00:57:18.221Z,101873.91
2019-01-10T00:59:49.980Z,101875.41
2019-01-10T01:02:20.253Z,101876.38
2019-01-10T01:04:50.525Z,101880.20
2019-01-10T01:07:20.855Z,101880.46
2019-01-10T01:09:51.584Z,101876.05
2019-01-10T01:12:21.890Z,101880.43
2019-01-10T01:14:52.144Z,101884.56
2019-01-10T01:17:22.529Z,101879.11
2019-01-10T01:19:53.322Z,101883.15
2019-01-10T01:22:24.116Z,101878.88
2019-01-10T01:24:54.424Z,101882.89
2019-01-10T01:27:24.727Z,101879.43
2019-01-10T01:29:54.989Z,101878.08
2019-01-10T01:32:25.747Z,101882.75
2019-01-10T01:34:56.691Z,101881.49
2019-01-10T01:37:27.837Z,101891.32
2019-01-10T01:39:58.676Z,101895.30
2019-01-10T01:42:29.020Z,101902.21
2019-01-10T01:44:59.847Z,101898.73
2019-01-10T01:47:30.205Z,101902.51
2019-01-10T01:50:01.129Z,101910.79
2019-01-10T01:52:33.071Z,101913.61
2019-01-10T01:55:03.884Z,101913.12
2019-01-10T01:57:34.187Z,101921.35
2019-01-10T02:00:06.503Z,101920.06
2019-01-10T02:02:36.909Z,101933.18
2019-01-10T02:05:08.952Z,101926.33
2019-01-10T02:07:39.642Z,101934.50
2019-01-10T02:10:14.872Z,101930.32
2019-01-10T02:12:45.174Z,101937.84
2019-01-10T02:15:16.519Z,101934.13
2019-01-10T02:17:49.273Z,101925.45
2019-01-10T02:20:19.019Z,101935.48
2019-01-10T02:22:49.492Z,101940.92
2019-01-10T02:25:22.256Z,101936.48
2019-01-10T02:27:52.621Z,101945.37
2019-01-10T02:30:25.301Z,101948.37
2019-01-10T02:32:55.597Z,101956.91
2019-01-10T02:35:26.370Z,101963.53
2019-01-10T02:37:56.655Z,101953.62
2019-01-10T02:40:29.854Z,101957.05
2019-01-10T02:43:00.120Z,101958.28
2019-01-10T02:45:31.315Z,101961.59
2019-01-10T02:48:01.622Z,101964.38
2019-01-10T02:50:32.375Z,101974.98
2019-01-10T02:53:02.672Z,101970.20
2019-01-10T02:55:34.582Z,101970.91
2019-01-10T02:58:04.949Z,101972.75
2019-01-10T03:00:35.429Z,101967.22
2019-01-10T03:03:05.818Z,101965.48
2019-01-10T03:05:36.607Z,101977.62
2019-01-10T03:08:06.894Z,101974.04
2019-01-10T03:10:38.195Z,101969.27
2019-01-10T03:13:08.459Z,101966.83
2019-01-10T03:15:39.408Z,101975.45
2019-01-10T03:18:09.671Z,101979.90
2019-01-10T03:20:40.016Z,101982.62
2019-01-10T03:23:10.376Z,101971.33
2019-01-10T03:25:41.754Z,101977.12
2019-01-10T03:28:12.034Z,101971.72
2019-01-10T03:30:42.325Z,101970.12
2019-01-10T03:33:12.592Z,101969.94
2019-01-10T03:35:43.575Z,101970.45
2019-01-10T03:38:13.845Z,101974.74
2019-01-10T03:40:45.964Z,101975.06
2019-01-10T03:43:16.243Z,101968.70
2019-01-10T03:45:47.299Z,101967.81
2019-01-10T03:48:17.562Z,101968.70
2019-01-10T03:50:47.890Z,101965.34
2019-01-10T03:53:18.172Z,101968.80
2019-01-10T03:55:50.479Z,101974.24
2019-01-10T03:58:20.776Z,101965.27
2019-01-10T04:00:51.107Z,101965.37
2019-01-10T04:03:21.452Z,101959.03
2019-01-10T04:05:52.931Z,101960.70
2019-01-10T04:08:23.208Z,101959.95
2019-01-10T04:10:53.480Z,101958.69
2019-01-10T04:13:24.118Z,101959.28
2019-01-10T04:15:55.010Z,101971.98
2019-01-10T04:18:25.495Z,101978.66
2019-01-10T04:20:55.770Z,101966.47
2019-01-10T04:23:26.092Z,101971.04
2019-01-10T04:25:56.958Z,101963.75
2019-01-10T04:28:27.810Z,101971.33
2019-01-10T04:30:58.083Z,101967.42
2019-01-10T04:33:28.359Z,101973.38
2019-01-10T04:35:58.668Z,101976.81
2019-01-10T04:38:29.449Z,101983.18
2019-01-10T04:41:00.646Z,101984.27
2019-01-10T04:43:31.010Z,101983.92
2019-01-10T04:46:02.014Z,101979.97
2019-01-10T04:48:32.856Z,101981.12
2019-01-10T04:51:03.233Z,101985.58
2019-01-10T04:53:33.514Z,101988.17
2019-01-10T04:56:03.931Z,101985.65
2019-01-10T04:58:34.179Z,101994.55
2019-01-10T05:01:07.781Z,101995.44
2019-01-10T05:03:38.137Z,101999.08
2019-01-10T05:06:08.415Z,101992.05
2019-01-10T05:08:38.694Z,101999.04
2019-01-10T05:11:11.424Z,102000.52
2019-01-10T05:13:41.958Z,102003.85
2019-01-10T05:16:12.687Z,101998.68
2019-01-10T05:18:42.993Z,101992.63
2019-01-10T05:21:13.752Z,101991.81
2019-01-10T05:23:44.180Z,102003.65
2019-01-10T05:26:14.528Z,102006.34
2019-01-10T05:28:44.811Z,101994.94
2019-01-10T05:31:15.668Z,101999.28
2019-01-10T05:33:46.134Z,102001.75
2019-01-10T05:36:16.420Z,101998.59
2019-01-10T05:38:46.688Z,102012.35
2019-01-10T05:41:18.073Z,102012.76
2019-01-10T05:43:48.831Z,102011.98
2019-01-10T05:46:19.164Z,102007.22
2019-01-10T05:48:49.455Z,102005.81
2019-01-10T05:51:19.726Z,102012.54
2019-01-10T05:53:53.168Z,102012.69
2019-01-10T05:56:23.467Z,102015.70
2019-01-10T05:58:53.731Z,102017.81
2019-01-10T06:01:24.089Z,102007.47
2019-01-10T06:03:54.386Z,102010.58
2019-01-10T06:06:25.151Z,102016.99
2019-01-10T06:08:55.443Z,102008.76
2019-01-10T06:11:25.922Z,102007.82
2019-01-10T06:13:56.202Z,102010.20
2019-01-10T06:16:26.983Z,102014.53
2019-01-10T06:18:57.284Z,102010.05
2019-01-10T06:21:27.633Z,102008.31
2019-01-10T06:23:58.556Z,102016.34
2019-01-10T06:26:29.488Z,102023.85
2019-01-10T06:28:59.819Z,102019.39
2019-01-10T06:31:30.182Z,102018.48
2019-01-10T06:34:00.540Z,102022.95
2019-01-10T06:36:30.898Z,102025.06
2019-01-10T06:39:01.700Z,102027.72
2019-01-10T06:41:33.070Z,102031.05
2019-01-10T06:44:03.388Z,102034.92
2019-01-10T06:46:33.665Z,102042.12
2019-01-10T06:49:04.187Z,102047.70
2019-01-10T06:51:36.210Z,102044.88
2019-01-10T06:54:06.683Z,102048.31
2019-01-10T06:56:38.669Z,102052.77
2019-01-10T06:59:09.364Z,102056.30
2019-01-10T07:01:40.102Z,102054.64
2019-01-10T07:04:10.865Z,102066.65
2019-01-10T07:06:41.158Z,102073.16
2019-01-10T07:09:11.491Z,102069.25
2019-01-10T07:11:42.119Z,102073.50
2019-01-10T07:14:12.932Z,102077.25
2019-01-10T07:16:43.286Z,102077.63
2019-01-10T07:19:13.558Z,102077.81
2019-01-10T07:21:56.155Z,102083.08
2019-01-10T07:24:27.863Z,102080.91
2019-01-10T07:27:01.357Z,102088.50
2019-01-10T07:29:31.624Z,102085.84
2019-01-10T07:32:02.062Z,102091.36
2019-01-10T07:34:32.306Z,102095.39
2019-01-10T07:37:12.454Z,102092.76
2019-01-10T07:39:39.410Z,102094.23
2019-01-10T07:42:12.144Z,102100.25
2019-01-10T07:44:42.410Z,102103.16
2019-01-10T07:47:12.801Z,102101.63
2019-01-10T07:49:43.693Z,102101.59
2019-01-10T07:52:13.958Z,102100.45
2019-01-10T07:54:44.258Z,102101.72
2019-01-10T07:57:14.536Z,102113.20
2019-01-10T07:59:44.814Z,102103.64
2019-01-10T08:02:15.644Z,102110.09
2019-01-10T08:04:45.900Z,102103.25
2019-01-10T08:07:16.195Z,102109.06
2019-01-10T08:09:46.465Z,102117.09
2019-01-10T08:12:17.307Z,102124.66
2019-01-10T08:14:47.584Z,102131.69
2019-01-10T08:17:18.266Z,102123.23
2019-01-10T08:19:48.652Z,102121.78
2019-01-10T08:22:27.548Z,102118.36
2019-01-10T08:24:53.018Z,102123.38
2019-01-10T08:27:23.312Z,102124.27
2019-01-10T08:29:53.579Z,102121.78
2019-01-10T08:32:25.787Z,102125.17
2019-01-10T08:34:56.058Z,102122.52
2019-01-10T08:37:26.795Z,102131.04
2019-01-10T08:39:57.114Z,102139.38
2019-01-10T08:42:28.722Z,102133.48
2019-01-10T08:44:59.031Z,102135.08
2019-01-10T08:47:29.839Z,102141.64
2019-01-10T08:50:00.281Z,102146.28
2019-01-10T08:52:31.185Z,102139.05
2019-01-10T08:55:01.530Z,102132.34
2019-01-10T08:57:31.855Z,102141.00
2019-01-10T09:00:02.120Z,102137.59
2019-01-10T09:02:36.047Z,102139.92
2019-01-10T09:05:06.434Z,102144.55
2019-01-10T09:07:36.816Z,102148.86
2019-01-10T09:10:10.726Z,102149.60
2019-01-10T09:12:41.531Z,102156.89
2019-01-10T09:15:11.784Z,102157.70
2019-01-10T09:17:43.409Z,102162.97
2019-01-10T09:20:14.110Z,102168.30
2019-01-10T09:22:44.981Z,102170.66
2019-01-10T09:25:15.295Z,102170.50
2019-01-10T09:27:46.657Z,102170.55
2019-01-10T09:30:18.637Z,102171.82
2019-01-10T09:32:50.040Z,102177.50
2019-01-10T09:35:20.640Z,102177.26
2019-01-10T09:37:50.943Z,102175.94
2019-01-10T09:40:22.246Z,102186.61
2019-01-10T09:42:54.765Z,102174.61
2019-01-10T09:45:25.964Z,102175.22
2019-01-10T09:47:57.627Z,102184.70
2019-01-10T09:50:28.055Z,102182.19
2019-01-10T09:52:59.143Z,102180.50
2019-01-10T09:55:29.432Z,102187.66
2019-01-10T09:57:59.722Z,102187.66
2019-01-10T10:00:31.026Z,102190.07
2019-01-10T10:03:01.740Z,102187.80
2019-01-10T10:05:34.151Z,102182.95
2019-01-10T10:08:04.816Z,102180.52
2019-01-10T10:10:35.243Z,102184.09
2019-01-10T10:13:06.107Z,102180.41
2019-01-10T10:15:36.416Z,102176.70
2019-01-10T10:18:06.801Z,102170.83
2019-01-10T10:20:37.704Z,102165.05
2019-01-10T10:23:08.410Z,102170.98
2019-01-10T10:25:38.735Z,102182.48
2019-01-10T10:28:09.038Z,102189.69
2019-01-10T10:30:39.310Z,102191.58
2019-01-10T10:33:10.279Z,102192.56
2019-01-10T10:35:40.576Z,102189.57
2019-01-10T10:38:11.351Z,102198.38
2019-01-10T10:40:41.619Z,102196.86
2019-01-10T10:43:13.093Z,102195.75
2019-01-10T10:45:43.394Z,102190.56
2019-01-10T10:48:13.819Z,102196.80
2019-01-10T10:50:44.172Z,102194.25
2019-01-10T10:53:16.612Z,102198.97
2019-01-10T10:55:46.973Z,102198.92
2019-01-10T10:58:18.638Z,102185.55
2019-01-10T11:00:48.964Z,102183.73
2019-01-10T11:03:20.213Z,102185.23
2019-01-10T11:05:50.508Z,102184.75
2019-01-10T11:08:21.792Z,102173.94
2019-01-10T11:10:52.076Z,102173.48
2019-01-10T11:13:23.287Z,102180.59
2019-01-10T11:15:53.585Z,102176.35
2019-01-10T11:18:23.978Z,102181.73
2019-01-10T11:20:54.272Z,102179.23
2019-01-10T11:23:26.236Z,102174.96
2019-01-10T11:25:56.540Z,102183.41
2019-01-10T11:28:26.843Z,102182.39
2019-01-10T11:30:57.179Z,102182.69
2019-01-10T11:33:28.028Z,102184.51
2019-01-10T11:35:58.354Z,102176.13
2019-01-10T11:38:28.666Z,102176.04
2019-01-10T11:41:00.236Z,102178.33
2019-01-10T11:43:31.643Z,102173.66
2019-01-10T11:46:02.066Z,102178.09
2019-01-10T11:48:32.476Z,102182.02
2019-01-10T11:51:02.788Z,102174.72
2019-01-10T11:53:35.539Z,102173.77
2019-01-10T11:56:06.450Z,102176.65
2019-01-10T11:58:36.717Z,102171.34
2019-01-10T12:01:07.617Z,102169.28
2019-01-10T12:03:38.030Z,102161.41
2019-01-10T12:06:08.753Z,102166.20
2019-01-10T12:08:39.086Z,102154.12
2019-01-10T12:11:09.964Z,102156.83
2019-01-10T12:13:40.254Z,102158.83
2019-01-10T12:16:10.554Z,102161.66
2019-01-10T12:18:40.889Z,102153.31
2019-01-10T12:21:11.671Z,102153.36
2019-01-10T12:23:42.005Z,102147.95
2019-01-10T12:26:13.478Z,102155.36
2019-01-10T12:28:43.783Z,102147.55
2019-01-10T12:31:14.059Z,102153.25
2019-01-10T12:33:44.389Z,102147.19
2019-01-10T12:36:15.164Z,102144.85
2019-01-10T12:38:45.412Z,102146.98
2019-01-10T12:41:16.743Z,102139.15
2019-01-10T12:43:47.726Z,102137.00
2019-01-10T12:46:18.114Z,102139.53
2019-01-10T12:48:48.847Z,102140.03
2019-01-10T12:51:19.177Z,102135.56
2019-01-10T12:53:49.601Z,102132.86
2019-01-10T12:56:21.570Z,102132.52
2019-01-10T12:58:52.409Z,102133.12
2019-01-10T13:01:22.739Z,102133.09
2019-01-10T13:03:53.028Z,102131.00
2019-01-10T13:06:23.334Z,102137.73
2019-01-10T13:08:54.087Z,102135.05
2019-01-10T13:11:25.776Z,102140.35
2019-01-10T13:13:56.110Z,102142.00
2019-01-10T13:16:26.494Z,102142.42
2019-01-10T13:18:58.274Z,102138.92
2019-01-10T13:21:28.650Z,102145.84
2019-01-10T13:23:59.047Z,102156.48
2019-01-10T13:26:29.877Z,102149.44
2019-01-10T13:29:00.720Z,102154.61
2019-01-10T13:31:31.023Z,102147.23
2019-01-10T13:34:01.850Z,102151.19
2019-01-10T13:36:32.126Z,102151.05
2019-01-10T13:39:04.604Z,102145.87
2019-01-10T13:41:34.879Z,102145.41
2019-01-10T13:44:07.489Z,102148.80
2019-01-10T13:46:37.953Z,102146.31
2019-01-10T13:49:08.791Z,102147.09
2019-01-10T13:51:39.129Z,102149.45
2019-01-10T13:54:09.509Z,102148.17
2019-01-10T13:56:39.881Z,102149.22
2019-01-10T14:01:44.167Z,102147.89
2019-01-10T14:04:14.527Z,102144.02
2019-01-10T14:06:45.290Z,102154.20
2019-01-10T14:09:16.170Z,102147.20
2019-01-10T14:11:46.652Z,102151.72
2019-01-10T14:14:17.054Z,102154.27
2019-01-10T14:16:48.716Z,102148.02
2019-01-10T14:19:19.525Z,102148.13
2019-01-10T14:21:49.891Z,102140.95
2019-01-10T14:24:21.189Z,102145.04
2019-01-10T14:26:51.473Z,102141.89
2019-01-10T14:29:22.267Z,102131.70
2019-01-10T14:31:52.544Z,102141.33
2019-01-10T14:34:23.427Z,102137.34
2019-01-10T14:36:53.706Z,102141.89
2019-01-10T14:39:24.015Z,102154.72
2019-01-10T14:41:54.338Z,102148.16
2019-01-10T14:44:25.960Z,102152.20
2019-01-10T14:46:56.410Z,102145.99
2019-01-10T14:49:26.852Z,102144.90
2019-01-10T14:51:57.759Z,102145.70
2019-01-10T14:54:28.616Z,102136.47
2019-01-10T14:56:58.918Z,102136.63
2019-01-10T14:59:29.434Z,102141.67
2019-01-10T15:02:01.131Z,102133.09
2019-01-10T15:04:31.869Z,102137.84
2019-01-10T15:07:02.783Z,102135.22
2019-01-10T15:09:33.078Z,102139.69
2019-01-10T15:12:03.487Z,102146.59
2019-01-10T15:14:34.279Z,102151.34
2019-01-10T15:17:04.649Z,102155.14
2019-01-10T15:19:34.933Z,102147.14
2019-01-10T15:22:06.527Z,102146.34
2019-01-10T15:24:37.428Z,102159.17
2019-01-10T15:27:07.751Z,102157.88
2019-01-10T15:29:38.028Z,102161.91
2019-01-10T15:32:08.317Z,102157.83
2019-01-10T15:34:39.295Z,102165.02
2019-01-10T15:37:09.585Z,102167.55
2019-01-10T15:39:40.511Z,102161.28
2019-01-10T15:42:10.796Z,102166.42
2019-01-10T15:44:43.125Z,102174.53
2019-01-10T15:47:13.429Z,102164.10
2019-01-10T15:49:43.790Z,102169.46
2019-01-10T15:52:14.083Z,102162.94
2019-01-10T15:54:46.968Z,102162.29
2019-01-10T15:57:17.286Z,102166.87
2019-01-10T15:59:47.597Z,102165.49
2019-01-10T16:02:17.909Z,102159.78
2019-01-10T16:04:48.699Z,102163.61
2019-01-10T16:07:19.107Z,102159.72
2019-01-10T16:09:49.410Z,102153.42
2019-01-10T16:12:19.703Z,102157.41
2019-01-10T16:14:50.413Z,102156.05
2019-01-10T16:17:25.579Z,102160.72
2019-01-10T16:19:53.302Z,102157.28
2019-01-10T16:22:23.599Z,102163.03
2019-01-10T16:24:53.971Z,102165.27
2019-01-10T16:27:24.871Z,102179.43
2019-01-10T16:29:55.284Z,102171.05
2019-01-10T16:32:25.578Z,102167.06
2019-01-10T16:34:56.153Z,102162.19
2019-01-10T16:37:26.467Z,102171.44
2019-01-10T16:39:57.290Z,102173.50
2019-01-10T16:42:27.683Z,102172.98
2019-01-10T16:45:00.044Z,102163.66
2019-01-10T16:47:31.743Z,102170.23
2019-01-10T16:50:02.657Z,102167.39
2019-01-10T16:52:32.962Z,102177.15
2019-01-10T16:55:03.529Z,102167.05
2019-01-10T16:57:33.872Z,102164.08
2019-01-10T17:00:06.727Z,102163.52
2019-01-10T17:02:37.054Z,102169.11
2019-01-10T17:05:07.584Z,102170.04
2019-01-10T17:07:37.885Z,102167.94
2019-01-10T17:10:09.458Z,102183.08
2019-01-10T17:12:40.643Z,102184.12
2019-01-10T17:15:11.699Z,102177.17
2019-01-10T17:17:41.985Z,102184.38
2019-01-10T17:20:14.674Z,102179.31
2019-01-10T17:22:44.966Z,102181.80
2019-01-10T17:25:15.837Z,102184.25
2019-01-10T17:27:46.147Z,102189.86
2019-01-10T17:30:24.087Z,102181.80
2019-01-10T17:32:54.480Z,102191.47
2019-01-10T17:35:27.041Z,102181.64
2019-01-10T17:37:58.384Z,102188.60
2019-01-10T17:40:29.228Z,102190.55
2019-01-10T17:42:59.601Z,102194.23
2019-01-10T17:45:34.507Z,102189.75
2019-01-10T17:48:06.554Z,102194.53
2019-01-10T17:50:37.286Z,102197.15
2019-01-10T17:53:09.256Z,102196.05
2019-01-10T17:55:39.636Z,102194.55
2019-01-10T17:58:09.978Z,102196.69
2019-01-10T18:00:41.684Z,102192.73
2019-01-10T18:03:12.047Z,102194.94
2019-01-10T18:05:42.893Z,102197.91
2019-01-10T18:08:13.261Z,102199.39
2019-01-10T18:10:44.448Z,102197.09
2019-01-10T18:13:14.764Z,102197.12
2019-01-10T18:15:46.230Z,102196.31
2019-01-10T18:18:16.517Z,102197.28
2019-01-10T18:20:47.383Z,102194.25
2019-01-10T18:23:17.692Z,102196.47
2019-01-10T18:25:48.020Z,102186.39
2019-01-10T18:28:18.318Z,102184.33
2019-01-10T18:30:50.593Z,102188.50
2019-01-10T18:33:20.893Z,102181.17
2019-01-10T18:35:51.293Z,102186.03
2019-01-10T18:38:21.576Z,102180.81
2019-01-10T18:40:52.361Z,102181.88
2019-01-10T18:43:22.672Z,102182.80
2019-01-10T18:45:55.831Z,102179.28
2019-01-10T18:48:26.155Z,102186.34
2019-01-10T18:50:56.941Z,102191.50
2019-01-10T18:53:27.251Z,102188.54
2019-01-10T18:55:57.534Z,102190.17
2019-01-10T18:58:27.860Z,102194.61
2019-01-10T19:00:58.702Z,102190.13
2019-01-10T19:03:29.037Z,102188.38
2019-01-10T19:05:59.536Z,102193.28
2019-01-10T19:08:30.984Z,102189.45
2019-01-10T19:11:01.859Z,102189.09
2019-01-10T19:13:32.593Z,102188.28
2019-01-10T19:16:02.906Z,102192.66
2019-01-10T19:18:34.598Z,102189.59
2019-01-10T19:21:05.461Z,102184.80
2019-01-10T19:23:35.807Z,102189.23
2019-01-10T19:26:06.223Z,102190.83
2019-01-10T19:28:37.559Z,102193.08
2019-01-10T19:31:08.562Z,102195.30
2019-01-10T19:33:39.496Z,102197.13
2019-01-10T19:36:09.827Z,102204.90
2019-01-10T19:38:40.248Z,102191.73
2019-01-10T19:41:11.088Z,102197.09
2019-01-10T19:43:41.451Z,102200.59
2019-01-10T19:46:12.172Z,102205.95
2019-01-10T19:48:43.097Z,102204.07
2019-01-10T19:51:13.923Z,102198.45
2019-01-10T19:53:44.907Z,102197.97
2019-01-10T19:56:16.219Z,102194.53
2019-01-10T19:58:46.567Z,102199.81
2019-01-10T20:01:17.402Z,102202.81
2019-01-10T20:03:47.765Z,102197.16
2019-01-10T20:06:19.441Z,102198.47
2019-01-10T20:08:49.756Z,102196.62
2019-01-10T20:11:20.055Z,102198.47
2019-01-10T20:13:50.394Z,102201.56
2019-01-10T20:16:21.203Z,102206.87
2019-01-10T20:18:51.508Z,102203.34
2019-01-10T20:21:22.330Z,102206.45
2019-01-10T20:23:52.629Z,102206.30
2019-01-10T20:26:22.953Z,102202.45
2019-01-10T20:28:53.271Z,102201.61
2019-01-10T20:31:24.064Z,102205.91
2019-01-10T20:33:54.468Z,102214.15
2019-01-10T20:36:25.332Z,102204.48
2019-01-10T20:38:55.634Z,102201.50
2019-01-10T20:41:26.042Z,102204.57
2019-01-10T20:43:56.537Z,102208.12
2019-01-10T20:46:28.140Z,102213.02
2019-01-10T20:48:58.528Z,102209.09
2019-01-10T20:51:28.968Z,102209.05
2019-01-10T20:54:00.313Z,102204.30
2019-01-10T20:56:31.110Z,102211.94
2019-01-10T20:59:02.599Z,102202.38
2019-01-10T21:01:32.928Z,102206.42
2019-01-10T21:04:03.234Z,102200.63
2019-01-10T21:06:33.661Z,102205.53
2019-01-10T21:09:05.941Z,102200.31
2019-01-10T21:11:36.245Z,102195.46
2019-01-10T21:14:06.676Z,102199.41
2019-01-10T21:16:36.972Z,102196.34
2019-01-10T21:19:08.280Z,102191.95
2019-01-10T21:21:38.688Z,102185.76
2019-01-10T21:24:09.565Z,102191.45
2019-01-10T21:26:39.868Z,102191.48
2019-01-10T21:29:11.546Z,102206.50
2019-01-10T21:31:41.873Z,102210.04
2019-01-10T21:34:12.351Z,102205.19
2019-01-10T21:36:42.796Z,102209.57
2019-01-10T21:39:13.587Z,102211.80
2019-01-10T21:41:43.981Z,102209.63
2019-01-10T21:44:15.490Z,102213.09
2019-01-10T21:46:47.430Z,102202.91
2019-01-10T21:49:17.763Z,102205.17
2019-01-10T21:51:48.437Z,102202.93
2019-01-10T21:54:18.847Z,102206.97
2019-01-10T21:56:49.123Z,102197.28
2019-01-10T21:59:19.402Z,102195.11
2019-01-10T22:01:51.358Z,102194.19
2019-01-10T22:04:21.637Z,102199.00
2019-01-10T22:06:52.629Z,102206.09
2019-01-10T22:09:23.011Z,102204.77
2019-01-10T22:11:53.788Z,102202.13
2019-01-10T22:14:24.063Z,102204.38
2019-01-10T22:16:56.285Z,102210.97
2019-01-10T22:19:26.619Z,102208.34
2019-01-10T22:21:56.984Z,102204.78
2019-01-10T22:24:27.266Z,102206.97
2019-01-10T22:26:58.177Z,102206.03
2019-01-10T22:29:28.447Z,102207.42
2019-01-10T22:32:00.410Z,102202.05
2019-01-10T22:34:30.761Z,102210.45
2019-01-10T22:37:01.601Z,102207.31
2019-01-10T22:39:31.959Z,102194.88
2019-01-10T22:42:02.249Z,102188.33
2019-01-10T22:44:32.507Z,102193.25
2019-01-10T22:47:04.598Z,102198.98
2019-01-10T22:49:34.907Z,102201.52
2019-01-10T22:52:05.250Z,102198.39
2019-01-10T22:54:35.534Z,102189.59
2019-01-10T22:57:06.254Z,102185.22
2019-01-10T22:59:36.592Z,102189.57
2019-01-10T23:02:09.391Z,102188.27
2019-01-10T23:04:39.769Z,102190.31
2019-01-10T23:07:20.702Z,102192.81
2019-01-10T23:09:51.052Z,102184.20
2019-01-10T23:12:21.403Z,102183.69
2019-01-10T23:14:51.679Z,102186.69
2019-01-10T23:17:25.434Z,102188.52
2019-01-10T23:19:55.693Z,102193.94
2019-01-10T23:22:26.188Z,102190.10
2019-01-10T23:24:57.927Z,102193.05
2019-01-10T23:27:28.983Z,102188.78
2019-01-10T23:29:59.293Z,102183.27
2019-01-10T23:32:29.589Z,102187.19
2019-01-10T23:35:01.379Z,102186.09
2019-01-10T23:37:32.269Z,102182.45
2019-01-10T23:40:02.578Z,102188.63
2019-01-10T23:42:32.864Z,102183.72
2019-01-10T23:45:03.267Z,102182.98
2019-01-10T23:47:34.748Z,102189.22
2019-01-10T23:50:07.018Z,102186.19
2019-01-10T23:52:37.395Z,102178.70
2019-01-10T23:55:07.690Z,102178.33
2019-01-10T23:57:38.003Z,102177.42
